Terminal Aerodrome Forecast
Issued by NWS San Angelo, TX

Home | Current Version | Previous Version | Text Only | Print | Product List | Glossary On
Versions: 1 2 3 4 5 6 7 8 9 10 11 12 13 14 15 16 17 18
000
FTUS44 KSJT 062300
TAFSJT
TAF
KSJT 062338Z 0700/0724 17012KT P6SM FEW060
     FM070400 16010KT P6SM SCT060 BKN250
     FM071200 16008KT P6SM VCSH SCT020 BKN040
     FM071500 17011KT P6SM VCSH BKN040
     FM071900 17010KT P6SM VCTS BKN040CB=

USA.gov is the U.S. government's official web portal to all federal, state and local government web resources and services.